MSC Divina — 3FFA5 — position and weather

sailwx.info

Track history (hours):
 
Tides and Currents Weather Stations Pressure Air Temp Water Temp Dewpoint Dewpoint Depression Visibility Wind Speed Wind Dir Waves Ship Positions

MSC Divina

Last reported at 2018-Apr-23 18:00 UTC. Time now 2018-Apr-24 01:07 UTC.
Position N 38°24' E 012°36'.

Length 333 m; draft 8.6 m.

Type: Passenger vessel. MMSI: 373178000.

Wind from 060 at 8 knots

Barometer 1020.8 mb
Air temperature 19.0 ° C
Visibility: greater than 5.4 NM
Dewpoint 14.2 ° C
Water temperature 16.0 ° C

Date/timePositionNaut miles runAvg speedWind from/ knotsBaromVisibWave heightAir tempDewpointWater temp
2018-Apr-23 18:00N 38°24' E 012°36'2817.0 060 / 81020.8 5.4 19.014.216.0
2018-Apr-23 16:20N 38°20' E 013°11'619.1
2018-Apr-23 16:00N 38°19' E 013°19'917.0
2018-Apr-23 15:30N 38°11' E 013°25'4 8.7
2018-Apr-23 15:00N 38°08' E 013°22'0 0.0
2018-Apr-23 14:28N 38°08' E 013°22'0 0.0
2018-Apr-23 14:00N 38°08' E 013°22'0 0.0
2018-Apr-23 13:29N 38°08' E 013°22'0 0.0
2018-Apr-23 12:59N 38°08' E 013°22'0 0.0
2018-Apr-23 12:29N 38°08' E 013°22'0 0.0
2018-Apr-23 11:59N 38°08' E 013°22'0 0.0
2018-Apr-23 11:29N 38°08' E 013°22'0 0.0
2018-Apr-23 10:59N 38°08' E 013°22'0 0.0
2018-Apr-23 10:29N 38°08' E 013°22'0 0.0
2018-Apr-23 09:59N 38°08' E 013°22'0 0.0
2018-Apr-23 09:29N 38°08' E 013°22'0 0.0
2018-Apr-23 09:01N 38°08' E 013°22'0 0.0
2018-Apr-23 08:25N 38°08' E 013°22'0 0.0
2018-Apr-23 08:00N 38°08' E 013°22'0 0.0
2018-Apr-23 07:30N 38°08' E 013°22'0 0.0
2018-Apr-23 07:00N 38°08' E 013°22'0 0.0
2018-Apr-23 06:30N 38°08' E 013°22'1 1.2
2018-Apr-23 06:00N 38°07' E 013°23'611.1
2018-Apr-23 05:30N 38°13' E 013°24'1020.1
2018-Apr-23 05:00N 38°23' E 013°22'1020.5
2018-Apr-23 04:30N 38°33' E 013°20'1020.9
2018-Apr-23 04:00N 38°43' E 013°18'1020.1
2018-Apr-23 03:30N 38°53' E 013°14'4317.0
2018-Apr-23 00:59N 39°33' E 012°54'2319.1
2018-Apr-22 23:48N 39°54' E 012°43'619.4
2018-Apr-22 23:30N 39°59' E 012°40'1121.8
2018-Apr-22 23:00N 40°09' E 012°36'1121.8
2018-Apr-22 22:30N 40°19' E 012°30'1121.8
2018-Apr-22 22:00N 40°29' E 012°25'1121.8
2018-Apr-22 21:30N 40°40' E 012°21'1121.5
2018-Apr-22 21:00N 40°50' E 012°16'1721.2
2018-Apr-22 20:12N 41°06' E 012°08'1021.4
2018-Apr-22 19:43N 41°16' E 012°03'621.6
2018-Apr-22 19:26N 41°21' E 012°00'1021.3
2018-Apr-22 18:57N 41°31' E 011°56'1021.1
2018-Apr-22 18:30N 41°40' E 011°51'1121.3
2018-Apr-22 18:00N 41°50' E 011°46'4688.8
2018-Apr-22 18:00N 41°48' E 011°42'25 1.7 240 / 171019.8 5.4 18.016.416.0
2018-Apr-22 03:01N 42°06' E 011°18'114.7
2018-Apr-22 02:58N 42°06' E 011°17'714.7
2018-Apr-22 02:31N 42°07' E 011°08'714.8
2018-Apr-22 02:01N 42°08' E 010°58'816.4
2018-Apr-22 01:31N 42°09' E 010°47'1519.1
2018-Apr-22 00:43N 42°11' E 010°27'1018.9
2018-Apr-22 00:12N 42°12' E 010°14'319.0
2018-Apr-22 00:01N 42°13' E 010°09'1417.6
2018-Apr-21 23:12N 42°23' E 009°56'419.2
2018-Apr-21 23:00N 42°27' E 009°54'1319.0
2018-Apr-21 22:18N 42°39' E 009°47'518.6
2018-Apr-21 22:00N 42°44' E 009°44'918.8
2018-Apr-21 21:31N 42°53' E 009°39'918.9
2018-Apr-21 21:00N 43°02' E 009°35'1019.1
2018-Apr-21 20:30N 43°11' E 009°32'918.8
2018-Apr-21 20:00N 43°20' E 009°28'918.6
2018-Apr-21 19:31N 43°29' E 009°24'918.6
2018-Apr-21 19:00N 43°37' E 009°19'918.8
2018-Apr-21 18:30N 43°46' E 009°15'918.4
2018-Apr-21 18:01N 43°55' E 009°10'3187.2
2018-Apr-21 18:00N 43°54' E 009°06'919.5 020 / 81019.2 5.4 20.013.517.0
2018-Apr-21 17:31N 44°03' E 009°06'918.4
2018-Apr-21 17:01N 44°12' E 009°02'918.2
2018-Apr-21 16:30N 44°21' E 008°57'4 8.3
2018-Apr-21 16:00N 44°24' E 008°55'0 0.0
2018-Apr-21 15:31N 44°24' E 008°55'0 0.0
2018-Apr-21 15:01N 44°24' E 008°55'0 0.0
2018-Apr-21 14:31N 44°24' E 008°55'0 0.0
2018-Apr-21 13:55N 44°24' E 008°55'0 0.0
2018-Apr-21 13:29N 44°24' E 008°55'0 0.0
2018-Apr-21 12:58N 44°24' E 008°55'0 0.0
2018-Apr-21 12:28N 44°24' E 008°55'0 0.0
2018-Apr-21 11:59N 44°24' E 008°55'0 0.0
2018-Apr-21 11:27N 44°24' E 008°55'0 0.0
2018-Apr-21 10:59N 44°24' E 008°55'0 0.0
2018-Apr-21 10:29N 44°24' E 008°55'0 0.0
2018-Apr-21 09:59N 44°24' E 008°55'0 0.0
2018-Apr-21 09:29N 44°24' E 008°55'0 0.0
2018-Apr-21 08:59N 44°24' E 008°55'0 0.0
2018-Apr-21 08:29N 44°24' E 008°55'0 0.0
2018-Apr-21 07:59N 44°24' E 008°55'0 0.0
2018-Apr-21 07:29N 44°24' E 008°55'0 0.0
2018-Apr-21 06:59N 44°24' E 008°55'0 0.0
2018-Apr-21 06:29N 44°24' E 008°55'0 0.0
2018-Apr-21 06:00N 44°24' E 008°55'0 0.0
2018-Apr-21 05:28N 44°24' E 008°55'0 0.1
2018-Apr-21 05:00N 44°24' E 008°55'1 2.0
2018-Apr-21 04:30N 44°24' E 008°56'5 9.1
2018-Apr-21 04:00N 44°19' E 008°58'917.6
2018-Apr-21 03:30N 44°12' E 008°51'1020.7
2018-Apr-21 03:00N 44°05' E 008°41'1020.2
2018-Apr-21 02:30N 43°59' E 008°30'1020.0
2018-Apr-21 02:00N 43°53' E 008°19'1020.4
2018-Apr-21 01:30N 43°46' E 008°08'3120.5
2018-Apr-21 00:00N 43°26' E 007°35'1021.2
2018-Apr-20 23:30N 43°20' E 007°24'1121.5
2018-Apr-20 23:00N 43°13' E 007°13'1020.8
2018-Apr-20 22:30N 43°06' E 007°02'7618.6
2018-Apr-20 18:26N 43°12' E 005°18'818.1
2018-Apr-20 17:59N 43°20' E 005°18'2 0.2
2018-Apr-20 10:19N 43°21' E 005°19'1 4.4
2018-Apr-20 10:00N 43°21' E 005°18'917.0
2018-Apr-20 09:30N 43°14' E 005°09'918.5
2018-Apr-20 09:01N 43°07' E 005°01'815.3
2018-Apr-20 08:30N 43°01' E 004°55'815.2
2018-Apr-20 08:00N 42°55' E 004°49'3416.8
2018-Apr-20 06:00N 42°30' E 004°18'8416.4 330 / 61026.8 5.4 15.013.315.0
2018-Apr-20 00:53N 41°27' E 003°03'918.0
2018-Apr-20 00:21N 41°21' E 002°54'1617.9
2018-Apr-19 23:28N 41°12' E 002°37'918.6
2018-Apr-19 23:01N 41°07' E 002°27'918.8
2018-Apr-19 22:30N 41°01' E 002°17'919.0
2018-Apr-19 22:01N 40°55' E 002°07'1119.2
2018-Apr-19 21:26N 40°49' E 001°56'919.1
2018-Apr-19 20:59N 40°44' E 001°47'6220.7
2018-Apr-19 18:00N 40°06' E 000°42'4916.2 050 / 91026.8 5.4 16.014.415.0
2018-Apr-19 14:59N 39°33' W 000°05'918.2
2018-Apr-19 14:29N 39°28' W 000°15'3 5.5
2018-Apr-19 14:00N 39°28' W 000°18'0 0.0
2018-Apr-19 13:29N 39°28' W 000°18'0 0.0
2018-Apr-19 12:55N 39°28' W 000°18'0 0.0
2018-Apr-19 12:27N 39°28' W 000°18'0 0.0
2018-Apr-19 12:00N 39°28' W 000°18'0 0.0
2018-Apr-19 11:27N 39°28' W 000°18'0 0.0
2018-Apr-19 11:00N 39°28' W 000°18'0 0.0
2018-Apr-19 10:28N 39°28' W 000°18'0 0.0
2018-Apr-19 09:58N 39°28' W 000°18'0 0.0
2018-Apr-19 09:28N 39°28' W 000°18'0 0.0
2018-Apr-19 08:58N 39°28' W 000°18'0 0.0
2018-Apr-19 08:28N 39°28' W 000°18'0 0.0
2018-Apr-19 07:58N 39°28' W 000°18'0 0.0
2018-Apr-19 07:30N 39°28' W 000°18'0 0.0
2018-Apr-19 07:00N 39°28' W 000°18'0 0.0
2018-Apr-19 06:30N 39°28' W 000°18'1 1.3
2018-Apr-19 06:00N 39°27' W 000°18'510.5
2018-Apr-19 05:30N 39°26' W 000°11'11119.6
2018-Apr-18 23:49N 39°24' E 002°13'721.4
2018-Apr-18 23:30N 39°24' E 002°22'1121.1
2018-Apr-18 23:00N 39°26' E 002°35'815.3
2018-Apr-18 22:30N 39°33' E 002°38'0 0.2
2018-Apr-18 21:59N 39°33' E 002°38'0 0.0
2018-Apr-18 21:29N 39°33' E 002°38'0 0.0
2018-Apr-18 20:59N 39°33' E 002°38'0 0.0
2018-Apr-18 20:29N 39°33' E 002°38'0 0.0
2018-Apr-18 19:58N 39°33' E 002°38'0 0.0
2018-Apr-18 19:30N 39°33' E 002°38'0 0.0
2018-Apr-18 19:00N 39°33' E 002°38'0 0.0
2018-Apr-18 18:30N 39°33' E 002°38'0 0.0
2018-Apr-18 18:00N 39°33' E 002°38'0 0.0
2018-Apr-18 17:30N 39°33' E 002°38'0 0.0
2018-Apr-18 17:00N 39°33' E 002°38'0 0.0
2018-Apr-18 16:29N 39°33' E 002°38'0 0.0
2018-Apr-18 15:59N 39°33' E 002°38'0 0.0
2018-Apr-18 15:29N 39°33' E 002°38'0 0.0
2018-Apr-18 14:59N 39°33' E 002°38'0 0.0
2018-Apr-18 14:29N 39°33' E 002°38'0 0.0
2018-Apr-18 14:00N 39°33' E 002°38'0 0.0
2018-Apr-18 13:30N 39°33' E 002°38'0 0.0
2018-Apr-18 12:59N 39°33' E 002°38'0 0.0
2018-Apr-18 12:28N 39°33' E 002°38'0 0.0
2018-Apr-18 11:58N 39°33' E 002°38'0 0.0
2018-Apr-18 11:30N 39°33' E 002°38'0 0.3
2018-Apr-18 11:00N 39°33' E 002°38'1 2.3
2018-Apr-18 10:30N 39°32' E 002°39'715.1
2018-Apr-18 10:01N 39°25' E 002°40'815.9
2018-Apr-18 09:30N 39°20' E 002°48'815.3
2018-Apr-18 09:00N 39°16' E 002°57'815.2
2018-Apr-18 08:30N 39°13' E 003°06'815.3
2018-Apr-18 08:00N 39°11' E 003°15'815.5
2018-Apr-18 07:29N 39°10' E 003°25'1715.8
2018-Apr-18 06:26N 39°07' E 003°46'920.1
2018-Apr-18 06:00N 39°00' E 003°54'21618.0 340 / 81026.8 5.4 15.011.615.0
2018-Apr-17 18:00N 38°42' E 008°30'942.1 330 / 201021.8 5.4 16.014.415.0
2018-Apr-17 17:47N 38°45' E 008°40'618.1
2018-Apr-17 17:28N 38°45' E 008°48'817.5
2018-Apr-17 17:00N 38°49' E 008°57'1018.9
2018-Apr-17 16:30N 38°56' E 009°05'917.8
2018-Apr-17 15:58N 39°05' E 009°09'714.3
2018-Apr-17 15:28N 39°12' E 009°07'1 1.2
2018-Apr-17 15:00N 39°12' E 009°06'0 0.0
2018-Apr-17 14:30N 39°12' E 009°06'0 0.0
2018-Apr-17 14:00N 39°12' E 009°06'0 0.0
2018-Apr-17 13:30N 39°12' E 009°06'0 0.0
2018-Apr-17 13:00N 39°12' E 009°06'0 0.0
2018-Apr-17 12:30N 39°12' E 009°06'0 0.0
2018-Apr-17 12:00N 39°12' E 009°06'0 0.0
2018-Apr-17 11:30N 39°12' E 009°06'0 0.0
2018-Apr-17 11:00N 39°12' E 009°06'0 0.0
2018-Apr-17 10:30N 39°12' E 009°06'0 0.0
2018-Apr-17 10:00N 39°12' E 009°06'0 0.0
2018-Apr-17 09:30N 39°12' E 009°06'0 0.0
2018-Apr-17 09:00N 39°12' E 009°06'0 0.0
2018-Apr-17 08:30N 39°12' E 009°06'0 0.0
2018-Apr-17 07:57N 39°12' E 009°06'0 0.0
2018-Apr-17 07:30N 39°12' E 009°06'0 0.0
2018-Apr-17 07:00N 39°12' E 009°06'0 0.0
2018-Apr-17 06:30N 39°12' E 009°06'0 0.5
2018-Apr-17 06:00N 39°12' E 009°07'3 6.0
2018-Apr-17 05:30N 39°10' E 009°08'611.3
2018-Apr-17 05:00N 39°05' E 009°13'611.7
2018-Apr-17 04:30N 39°01' E 009°18'611.9
2018-Apr-17 03:59N 38°59' E 009°25'613.0
2018-Apr-17 03:30N 38°57' E 009°33'6714.6
2018-Apr-16 22:54N 38°43' E 010°58'7515.2
2018-Apr-16 18:00N 38°24' E 012°30'2022.2 240 / 141015.8 5.4 16.012.715.0
2018-Apr-16 17:07N 38°23' E 012°55'218.3
2018-Apr-16 17:01N 38°22' E 012°57'918.2
2018-Apr-16 16:31N 38°20' E 013°09'917.8
2018-Apr-16 16:01N 38°18' E 013°20'917.0
2018-Apr-16 15:30N 38°11' E 013°25'4 8.6
2018-Apr-16 15:01N 38°08' E 013°22'0 0.2
2018-Apr-16 14:26N 38°08' E 013°22'0 0.0
2018-Apr-16 13:59N 38°08' E 013°22'0 0.0
2018-Apr-16 13:29N 38°08' E 013°22'0 0.0
2018-Apr-16 12:59N 38°08' E 013°22'0 0.0
2018-Apr-16 12:29N 38°08' E 013°22'0 0.0
2018-Apr-16 11:58N 38°08' E 013°22'0 0.0
2018-Apr-16 11:30N 38°08' E 013°22'0 0.0
2018-Apr-16 11:00N 38°08' E 013°22'0 0.0
2018-Apr-16 10:30N 38°08' E 013°22'0 0.0
2018-Apr-16 09:59N 38°08' E 013°22'0 0.0
2018-Apr-16 09:29N 38°08' E 013°22'0 0.0
2018-Apr-16 08:58N 38°08' E 013°22'0 0.0
2018-Apr-16 08:28N 38°08' E 013°22'0 0.0
2018-Apr-16 07:58N 38°08' E 013°22'0 0.0
2018-Apr-16 07:28N 38°08' E 013°22'0 0.0
2018-Apr-16 06:58N 38°08' E 013°22'0 0.0
2018-Apr-16 06:30N 38°08' E 013°22'1 2.1
2018-Apr-16 06:00N 38°07' E 013°23'611.4
2018-Apr-16 05:30N 38°13' E 013°24'612.4
2018-Apr-16 05:00N 38°19' E 013°23'815.3
2018-Apr-16 04:30N 38°27' E 013°21'815.5
2018-Apr-16 04:00N 38°34' E 013°20'816.2
2018-Apr-16 03:30N 38°42' E 013°19'248 9.1
2018-Apr-15 00:09N 42°11' E 010°22'3615.1
2018-Apr-14 21:47N 42°36' E 009°48'819.1
2018-Apr-14 21:23N 42°43' E 009°44'819.0
2018-Apr-14 20:59N 42°50' E 009°40'918.9
2018-Apr-14 20:30N 42°59' E 009°36'1020.0
2018-Apr-14 20:00N 43°09' E 009°33'1121.8
2018-Apr-14 19:30N 43°19' E 009°28'1121.8
2018-Apr-14 19:01N 43°29' E 009°23'1121.5
2018-Apr-14 18:30N 43°39' E 009°18'1121.4
2018-Apr-14 18:01N 43°50' E 009°13'2100.8
2018-Apr-14 18:00N 43°48' E 009°12'1225.0 330 / 261015.8 5.4 17.011.914.0
2018-Apr-14 17:30N 43°60' E 009°08'1121.5
2018-Apr-14 17:00N 44°10' E 009°03'1121.6
2018-Apr-14 16:31N 44°20' E 008°58'5 9.3
2018-Apr-14 15:59N 44°24' E 008°55'0 0.0
2018-Apr-14 15:30N 44°24' E 008°55'0 0.0
2018-Apr-14 15:00N 44°24' E 008°55'0 0.0
2018-Apr-14 14:24N 44°24' E 008°55'0 0.0
2018-Apr-14 13:56N 44°24' E 008°55'0 0.0
2018-Apr-14 13:28N 44°24' E 008°55'0 0.0
2018-Apr-14 12:58N 44°24' E 008°55'0 0.0
2018-Apr-14 12:28N 44°24' E 008°55'0 0.0
2018-Apr-14 11:58N 44°24' E 008°55'0 0.0
2018-Apr-14 11:28N 44°24' E 008°55'0 0.0
2018-Apr-14 11:00N 44°24' E 008°55'0 0.0
2018-Apr-14 10:30N 44°24' E 008°55'0 0.0
2018-Apr-14 09:59N 44°24' E 008°55'0 0.0
2018-Apr-14 09:29N 44°24' E 008°55'0 0.0
2018-Apr-14 08:59N 44°24' E 008°55'0 0.0
2018-Apr-14 08:26N 44°24' E 008°55'0 0.0
2018-Apr-14 07:58N 44°24' E 008°55'0 0.0
2018-Apr-14 07:26N 44°24' E 008°55'0 0.0
2018-Apr-14 06:56N 44°24' E 008°55'0 0.0
2018-Apr-14 06:28N 44°24' E 008°55'0 0.0
2018-Apr-14 06:00N 44°24' E 008°55'1 1.4
2018-Apr-14 05:31N 44°24' E 008°55'2 3.7
2018-Apr-14 05:01N 44°23' E 008°57'2 3.5
2018-Apr-14 04:31N 44°21' E 008°59'4 7.9
2018-Apr-14 04:00N 44°17' E 008°58'1020.7
2018-Apr-14 03:30N 44°10' E 008°47'1121.2
2018-Apr-14 03:01N 44°04' E 008°36'1020.7
2018-Apr-14 02:30N 43°57' E 008°25'1020.0
2018-Apr-14 02:01N 43°50' E 008°15'1020.7
2018-Apr-14 01:31N 43°44' E 008°04'1121.2
2018-Apr-14 01:00N 43°37' E 007°52'1121.4
2018-Apr-14 00:30N 43°30' E 007°41'1020.7
2018-Apr-14 00:00N 43°23' E 007°30'1121.1
2018-Apr-13 23:30N 43°16' E 007°19'1121.6
2018-Apr-13 23:00N 43°09' E 007°09'1121.3
2018-Apr-13 22:31N 43°02' E 006°57'7318.8
2018-Apr-13 18:37N 43°12' E 005°18'319.8
2018-Apr-13 18:29N 43°14' E 005°16'  
Track history (hours):
 
Tides and Currents Weather Stations Pressure Air Temp Water Temp Dewpoint Dewpoint Depression Visibility Wind Speed Wind Dir Waves Ship Positions

MSC Divina

Last reported at 2018-Apr-23 18:00 UTC. Time now 2018-Apr-24 01:07 UTC.
Position N 38°24' E 012°36'.

Length 333 m; draft 8.6 m.

Type: Passenger vessel. MMSI: 373178000.

Wind from 060 at 8 knots

Barometer 1020.8 mb
Air temperature 19.0 ° C
Visibility: greater than 5.4 NM
Dewpoint 14.2 ° C
Water temperature 16.0 ° C

Date/timePositionNaut miles runAvg speedWind from/ knotsBaromVisibWave heightAir tempDewpointWater temp
2018-Apr-23 18:00N 38°24' E 012°36'2817.0 060 / 81020.8 5.4 19.014.216.0
2018-Apr-23 16:20N 38°20' E 013°11'619.1
2018-Apr-23 16:00N 38°19' E 013°19'917.0
2018-Apr-23 15:30N 38°11' E 013°25'4 8.7
2018-Apr-23 15:00N 38°08' E 013°22'0 0.0
2018-Apr-23 14:28N 38°08' E 013°22'0 0.0
2018-Apr-23 14:00N 38°08' E 013°22'0 0.0
2018-Apr-23 13:29N 38°08' E 013°22'0 0.0
2018-Apr-23 12:59N 38°08' E 013°22'0 0.0
2018-Apr-23 12:29N 38°08' E 013°22'0 0.0
2018-Apr-23 11:59N 38°08' E 013°22'0 0.0
2018-Apr-23 11:29N 38°08' E 013°22'0 0.0
2018-Apr-23 10:59N 38°08' E 013°22'0 0.0
2018-Apr-23 10:29N 38°08' E 013°22'0 0.0
2018-Apr-23 09:59N 38°08' E 013°22'0 0.0
2018-Apr-23 09:29N 38°08' E 013°22'0 0.0
2018-Apr-23 09:01N 38°08' E 013°22'0 0.0
2018-Apr-23 08:25N 38°08' E 013°22'0 0.0
2018-Apr-23 08:00N 38°08' E 013°22'0 0.0
2018-Apr-23 07:30N 38°08' E 013°22'0 0.0
2018-Apr-23 07:00N 38°08' E 013°22'0 0.0
2018-Apr-23 06:30N 38°08' E 013°22'1 1.2
2018-Apr-23 06:00N 38°07' E 013°23'611.1
2018-Apr-23 05:30N 38°13' E 013°24'1020.1
2018-Apr-23 05:00N 38°23' E 013°22'1020.5
2018-Apr-23 04:30N 38°33' E 013°20'1020.9
2018-Apr-23 04:00N 38°43' E 013°18'1020.1
2018-Apr-23 03:30N 38°53' E 013°14'4317.0
2018-Apr-23 00:59N 39°33' E 012°54'2319.1
2018-Apr-22 23:48N 39°54' E 012°43'619.4
2018-Apr-22 23:30N 39°59' E 012°40'1121.8
2018-Apr-22 23:00N 40°09' E 012°36'1121.8
2018-Apr-22 22:30N 40°19' E 012°30'1121.8
2018-Apr-22 22:00N 40°29' E 012°25'1121.8
2018-Apr-22 21:30N 40°40' E 012°21'1121.5
2018-Apr-22 21:00N 40°50' E 012°16'1721.2
2018-Apr-22 20:12N 41°06' E 012°08'1021.4
2018-Apr-22 19:43N 41°16' E 012°03'621.6
2018-Apr-22 19:26N 41°21' E 012°00'1021.3
2018-Apr-22 18:57N 41°31' E 011°56'1021.1
2018-Apr-22 18:30N 41°40' E 011°51'1121.3
2018-Apr-22 18:00N 41°50' E 011°46'4688.8
2018-Apr-22 18:00N 41°48' E 011°42'25 1.7 240 / 171019.8 5.4 18.016.416.0
2018-Apr-22 03:01N 42°06' E 011°18'114.7
2018-Apr-22 02:58N 42°06' E 011°17'714.7
2018-Apr-22 02:31N 42°07' E 011°08'714.8
2018-Apr-22 02:01N 42°08' E 010°58'816.4
2018-Apr-22 01:31N 42°09' E 010°47'1519.1
2018-Apr-22 00:43N 42°11' E 010°27'1018.9
2018-Apr-22 00:12N 42°12' E 010°14'319.0
2018-Apr-22 00:01N 42°13' E 010°09'1417.6
2018-Apr-21 23:12N 42°23' E 009°56'419.2
2018-Apr-21 23:00N 42°27' E 009°54'1319.0
2018-Apr-21 22:18N 42°39' E 009°47'518.6
2018-Apr-21 22:00N 42°44' E 009°44'918.8
2018-Apr-21 21:31N 42°53' E 009°39'918.9
2018-Apr-21 21:00N 43°02' E 009°35'1019.1
2018-Apr-21 20:30N 43°11' E 009°32'918.8
2018-Apr-21 20:00N 43°20' E 009°28'918.6
2018-Apr-21 19:31N 43°29' E 009°24'918.6
2018-Apr-21 19:00N 43°37' E 009°19'918.8
2018-Apr-21 18:30N 43°46' E 009°15'918.4
2018-Apr-21 18:01N 43°55' E 009°10'3187.2
2018-Apr-21 18:00N 43°54' E 009°06'919.5 020 / 81019.2 5.4 20.013.517.0
2018-Apr-21 17:31N 44°03' E 009°06'918.4
2018-Apr-21 17:01N 44°12' E 009°02'918.2
2018-Apr-21 16:30N 44°21' E 008°57'4 8.3
2018-Apr-21 16:00N 44°24' E 008°55'0 0.0
2018-Apr-21 15:31N 44°24' E 008°55'0 0.0
2018-Apr-21 15:01N 44°24' E 008°55'0 0.0
2018-Apr-21 14:31N 44°24' E 008°55'0 0.0
2018-Apr-21 13:55N 44°24' E 008°55'0 0.0
2018-Apr-21 13:29N 44°24' E 008°55'0 0.0
2018-Apr-21 12:58N 44°24' E 008°55'0 0.0
2018-Apr-21 12:28N 44°24' E 008°55'0 0.0
2018-Apr-21 11:59N 44°24' E 008°55'0 0.0
2018-Apr-21 11:27N 44°24' E 008°55'0 0.0
2018-Apr-21 10:59N 44°24' E 008°55'0 0.0
2018-Apr-21 10:29N 44°24' E 008°55'0 0.0
2018-Apr-21 09:59N 44°24' E 008°55'0 0.0
2018-Apr-21 09:29N 44°24' E 008°55'0 0.0
2018-Apr-21 08:59N 44°24' E 008°55'0 0.0
2018-Apr-21 08:29N 44°24' E 008°55'0 0.0
2018-Apr-21 07:59N 44°24' E 008°55'0 0.0
2018-Apr-21 07:29N 44°24' E 008°55'0 0.0
2018-Apr-21 06:59N 44°24' E 008°55'0 0.0
2018-Apr-21 06:29N 44°24' E 008°55'0 0.0
2018-Apr-21 06:00N 44°24' E 008°55'0 0.0
2018-Apr-21 05:28N 44°24' E 008°55'0 0.1
2018-Apr-21 05:00N 44°24' E 008°55'1 2.0
2018-Apr-21 04:30N 44°24' E 008°56'5 9.1
2018-Apr-21 04:00N 44°19' E 008°58'917.6
2018-Apr-21 03:30N 44°12' E 008°51'1020.7
2018-Apr-21 03:00N 44°05' E 008°41'1020.2
2018-Apr-21 02:30N 43°59' E 008°30'1020.0
2018-Apr-21 02:00N 43°53' E 008°19'1020.4
2018-Apr-21 01:30N 43°46' E 008°08'3120.5
2018-Apr-21 00:00N 43°26' E 007°35'1021.2
2018-Apr-20 23:30N 43°20' E 007°24'1121.5
2018-Apr-20 23:00N 43°13' E 007°13'1020.8
2018-Apr-20 22:30N 43°06' E 007°02'7618.6
2018-Apr-20 18:26N 43°12' E 005°18'818.1
2018-Apr-20 17:59N 43°20' E 005°18'2 0.2
2018-Apr-20 10:19N 43°21' E 005°19'1 4.4
2018-Apr-20 10:00N 43°21' E 005°18'917.0
2018-Apr-20 09:30N 43°14' E 005°09'918.5
2018-Apr-20 09:01N 43°07' E 005°01'815.3
2018-Apr-20 08:30N 43°01' E 004°55'815.2
2018-Apr-20 08:00N 42°55' E 004°49'3416.8
2018-Apr-20 06:00N 42°30' E 004°18'8416.4 330 / 61026.8 5.4 15.013.315.0
2018-Apr-20 00:53N 41°27' E 003°03'918.0
2018-Apr-20 00:21N 41°21' E 002°54'1617.9
2018-Apr-19 23:28N 41°12' E 002°37'918.6
2018-Apr-19 23:01N 41°07' E 002°27'918.8
2018-Apr-19 22:30N 41°01' E 002°17'919.0
2018-Apr-19 22:01N 40°55' E 002°07'1119.2
2018-Apr-19 21:26N 40°49' E 001°56'919.1
2018-Apr-19 20:59N 40°44' E 001°47'6220.7
2018-Apr-19 18:00N 40°06' E 000°42'4916.2 050 / 91026.8 5.4 16.014.415.0
2018-Apr-19 14:59N 39°33' W 000°05'918.2
2018-Apr-19 14:29N 39°28' W 000°15'3 5.5
2018-Apr-19 14:00N 39°28' W 000°18'0 0.0
2018-Apr-19 13:29N 39°28' W 000°18'0 0.0
2018-Apr-19 12:55N 39°28' W 000°18'0 0.0
2018-Apr-19 12:27N 39°28' W 000°18'0 0.0
2018-Apr-19 12:00N 39°28' W 000°18'0 0.0
2018-Apr-19 11:27N 39°28' W 000°18'0 0.0
2018-Apr-19 11:00N 39°28' W 000°18'0 0.0
2018-Apr-19 10:28N 39°28' W 000°18'0 0.0
2018-Apr-19 09:58N 39°28' W 000°18'0 0.0
2018-Apr-19 09:28N 39°28' W 000°18'0 0.0
2018-Apr-19 08:58N 39°28' W 000°18'0 0.0
2018-Apr-19 08:28N 39°28' W 000°18'0 0.0
2018-Apr-19 07:58N 39°28' W 000°18'0 0.0
2018-Apr-19 07:30N 39°28' W 000°18'0 0.0
2018-Apr-19 07:00N 39°28' W 000°18'0 0.0
2018-Apr-19 06:30N 39°28' W 000°18'1 1.3
2018-Apr-19 06:00N 39°27' W 000°18'510.5
2018-Apr-19 05:30N 39°26' W 000°11'11119.6
2018-Apr-18 23:49N 39°24' E 002°13'721.4
2018-Apr-18 23:30N 39°24' E 002°22'1121.1
2018-Apr-18 23:00N 39°26' E 002°35'815.3
2018-Apr-18 22:30N 39°33' E 002°38'0 0.2
2018-Apr-18 21:59N 39°33' E 002°38'0 0.0
2018-Apr-18 21:29N 39°33' E 002°38'0 0.0
2018-Apr-18 20:59N 39°33' E 002°38'0 0.0
2018-Apr-18 20:29N 39°33' E 002°38'0 0.0
2018-Apr-18 19:58N 39°33' E 002°38'0 0.0
2018-Apr-18 19:30N 39°33' E 002°38'0 0.0
2018-Apr-18 19:00N 39°33' E 002°38'0 0.0
2018-Apr-18 18:30N 39°33' E 002°38'0 0.0
2018-Apr-18 18:00N 39°33' E 002°38'0 0.0
2018-Apr-18 17:30N 39°33' E 002°38'0 0.0
2018-Apr-18 17:00N 39°33' E 002°38'0 0.0
2018-Apr-18 16:29N 39°33' E 002°38'0 0.0
2018-Apr-18 15:59N 39°33' E 002°38'0 0.0
2018-Apr-18 15:29N 39°33' E 002°38'0 0.0
2018-Apr-18 14:59N 39°33' E 002°38'0 0.0
2018-Apr-18 14:29N 39°33' E 002°38'0 0.0
2018-Apr-18 14:00N 39°33' E 002°38'0 0.0
2018-Apr-18 13:30N 39°33' E 002°38'0 0.0
2018-Apr-18 12:59N 39°33' E 002°38'0 0.0
2018-Apr-18 12:28N 39°33' E 002°38'0 0.0
2018-Apr-18 11:58N 39°33' E 002°38'0 0.0
2018-Apr-18 11:30N 39°33' E 002°38'0 0.3
2018-Apr-18 11:00N 39°33' E 002°38'1 2.3
2018-Apr-18 10:30N 39°32' E 002°39'715.1
2018-Apr-18 10:01N 39°25' E 002°40'815.9
2018-Apr-18 09:30N 39°20' E 002°48'815.3
2018-Apr-18 09:00N 39°16' E 002°57'815.2
2018-Apr-18 08:30N 39°13' E 003°06'815.3
2018-Apr-18 08:00N 39°11' E 003°15'815.5
2018-Apr-18 07:29N 39°10' E 003°25'1715.8
2018-Apr-18 06:26N 39°07' E 003°46'920.1
2018-Apr-18 06:00N 39°00' E 003°54'21618.0 340 / 81026.8 5.4 15.011.615.0
2018-Apr-17 18:00N 38°42' E 008°30'942.1 330 / 201021.8 5.4 16.014.415.0
2018-Apr-17 17:47N 38°45' E 008°40'618.1
2018-Apr-17 17:28N 38°45' E 008°48'817.5
2018-Apr-17 17:00N 38°49' E 008°57'1018.9
2018-Apr-17 16:30N 38°56' E 009°05'917.8
2018-Apr-17 15:58N 39°05' E 009°09'714.3
2018-Apr-17 15:28N 39°12' E 009°07'1 1.2
2018-Apr-17 15:00N 39°12' E 009°06'0 0.0
2018-Apr-17 14:30N 39°12' E 009°06'0 0.0
2018-Apr-17 14:00N 39°12' E 009°06'0 0.0
2018-Apr-17 13:30N 39°12' E 009°06'0 0.0
2018-Apr-17 13:00N 39°12' E 009°06'0 0.0
2018-Apr-17 12:30N 39°12' E 009°06'0 0.0
2018-Apr-17 12:00N 39°12' E 009°06'0 0.0
2018-Apr-17 11:30N 39°12' E 009°06'0 0.0
2018-Apr-17 11:00N 39°12' E 009°06'0 0.0
2018-Apr-17 10:30N 39°12' E 009°06'0 0.0
2018-Apr-17 10:00N 39°12' E 009°06'0 0.0
2018-Apr-17 09:30N 39°12' E 009°06'0 0.0
2018-Apr-17 09:00N 39°12' E 009°06'0 0.0
2018-Apr-17 08:30N 39°12' E 009°06'0 0.0
2018-Apr-17 07:57N 39°12' E 009°06'0 0.0
2018-Apr-17 07:30N 39°12' E 009°06'0 0.0
2018-Apr-17 07:00N 39°12' E 009°06'0 0.0
2018-Apr-17 06:30N 39°12' E 009°06'0 0.5
2018-Apr-17 06:00N 39°12' E 009°07'3 6.0
2018-Apr-17 05:30N 39°10' E 009°08'611.3
2018-Apr-17 05:00N 39°05' E 009°13'611.7
2018-Apr-17 04:30N 39°01' E 009°18'611.9
2018-Apr-17 03:59N 38°59' E 009°25'613.0
2018-Apr-17 03:30N 38°57' E 009°33'6714.6
2018-Apr-16 22:54N 38°43' E 010°58'7515.2
2018-Apr-16 18:00N 38°24' E 012°30'2022.2 240 / 141015.8 5.4 16.012.715.0
2018-Apr-16 17:07N 38°23' E 012°55'218.3
2018-Apr-16 17:01N 38°22' E 012°57'918.2
2018-Apr-16 16:31N 38°20' E 013°09'917.8
2018-Apr-16 16:01N 38°18' E 013°20'917.0
2018-Apr-16 15:30N 38°11' E 013°25'4 8.6
2018-Apr-16 15:01N 38°08' E 013°22'0 0.2
2018-Apr-16 14:26N 38°08' E 013°22'0 0.0
2018-Apr-16 13:59N 38°08' E 013°22'0 0.0
2018-Apr-16 13:29N 38°08' E 013°22'0 0.0
2018-Apr-16 12:59N 38°08' E 013°22'0 0.0
2018-Apr-16 12:29N 38°08' E 013°22'0 0.0
2018-Apr-16 11:58N 38°08' E 013°22'0 0.0
2018-Apr-16 11:30N 38°08' E 013°22'0 0.0
2018-Apr-16 11:00N 38°08' E 013°22'0 0.0
2018-Apr-16 10:30N 38°08' E 013°22'0 0.0
2018-Apr-16 09:59N 38°08' E 013°22'0 0.0
2018-Apr-16 09:29N 38°08' E 013°22'0 0.0
2018-Apr-16 08:58N 38°08' E 013°22'0 0.0
2018-Apr-16 08:28N 38°08' E 013°22'0 0.0
2018-Apr-16 07:58N 38°08' E 013°22'0 0.0
2018-Apr-16 07:28N 38°08' E 013°22'0 0.0
2018-Apr-16 06:58N 38°08' E 013°22'0 0.0
2018-Apr-16 06:30N 38°08' E 013°22'1 2.1
2018-Apr-16 06:00N 38°07' E 013°23'611.4
2018-Apr-16 05:30N 38°13' E 013°24'612.4
2018-Apr-16 05:00N 38°19' E 013°23'815.3
2018-Apr-16 04:30N 38°27' E 013°21'815.5
2018-Apr-16 04:00N 38°34' E 013°20'816.2
2018-Apr-16 03:30N 38°42' E 013°19'248 9.1
2018-Apr-15 00:09N 42°11' E 010°22'3615.1
2018-Apr-14 21:47N 42°36' E 009°48'819.1
2018-Apr-14 21:23N 42°43' E 009°44'819.0
2018-Apr-14 20:59N 42°50' E 009°40'918.9
2018-Apr-14 20:30N 42°59' E 009°36'1020.0
2018-Apr-14 20:00N 43°09' E 009°33'1121.8
2018-Apr-14 19:30N 43°19' E 009°28'1121.8
2018-Apr-14 19:01N 43°29' E 009°23'1121.5
2018-Apr-14 18:30N 43°39' E 009°18'1121.4
2018-Apr-14 18:01N 43°50' E 009°13'2100.8
2018-Apr-14 18:00N 43°48' E 009°12'1225.0 330 / 261015.8 5.4 17.011.914.0
2018-Apr-14 17:30N 43°60' E 009°08'1121.5
2018-Apr-14 17:00N 44°10' E 009°03'1121.6
2018-Apr-14 16:31N 44°20' E 008°58'5 9.3
2018-Apr-14 15:59N 44°24' E 008°55'0 0.0
2018-Apr-14 15:30N 44°24' E 008°55'0 0.0
2018-Apr-14 15:00N 44°24' E 008°55'0 0.0
2018-Apr-14 14:24N 44°24' E 008°55'0 0.0
2018-Apr-14 13:56N 44°24' E 008°55'0 0.0
2018-Apr-14 13:28N 44°24' E 008°55'0 0.0
2018-Apr-14 12:58N 44°24' E 008°55'0 0.0
2018-Apr-14 12:28N 44°24' E 008°55'0 0.0
2018-Apr-14 11:58N 44°24' E 008°55'0 0.0
2018-Apr-14 11:28N 44°24' E 008°55'0 0.0
2018-Apr-14 11:00N 44°24' E 008°55'0 0.0
2018-Apr-14 10:30N 44°24' E 008°55'0 0.0
2018-Apr-14 09:59N 44°24' E 008°55'0 0.0
2018-Apr-14 09:29N 44°24' E 008°55'0 0.0
2018-Apr-14 08:59N 44°24' E 008°55'0 0.0
2018-Apr-14 08:26N 44°24' E 008°55'0 0.0
2018-Apr-14 07:58N 44°24' E 008°55'0 0.0
2018-Apr-14 07:26N 44°24' E 008°55'0 0.0
2018-Apr-14 06:56N 44°24' E 008°55'0 0.0
2018-Apr-14 06:28N 44°24' E 008°55'0 0.0
2018-Apr-14 06:00N 44°24' E 008°55'1 1.4
2018-Apr-14 05:31N 44°24' E 008°55'2 3.7
2018-Apr-14 05:01N 44°23' E 008°57'2 3.5
2018-Apr-14 04:31N 44°21' E 008°59'4 7.9
2018-Apr-14 04:00N 44°17' E 008°58'1020.7
2018-Apr-14 03:30N 44°10' E 008°47'1121.2
2018-Apr-14 03:01N 44°04' E 008°36'1020.7
2018-Apr-14 02:30N 43°57' E 008°25'1020.0
2018-Apr-14 02:01N 43°50' E 008°15'1020.7
2018-Apr-14 01:31N 43°44' E 008°04'1121.2
2018-Apr-14 01:00N 43°37' E 007°52'1121.4
2018-Apr-14 00:30N 43°30' E 007°41'1020.7
2018-Apr-14 00:00N 43°23' E 007°30'1121.1
2018-Apr-13 23:30N 43°16' E 007°19'1121.6
2018-Apr-13 23:00N 43°09' E 007°09'1121.3
2018-Apr-13 22:31N 43°02' E 006°57'7318.8
2018-Apr-13 18:37N 43°12' E 005°18'319.8
2018-Apr-13 18:29N 43°14' E 005°16'  

Dump ship's entire track history